createdAt,value
2017-05-24T00:00:46.668Z,2
2017-05-24T00:10:46.477Z,2
2017-05-24T00:20:46.481Z,3
2017-05-24T00:30:46.792Z,2
2017-05-24T00:40:46.520Z,2
2017-05-24T00:50:46.576Z,2
2017-05-24T01:00:46.497Z,3
2017-05-24T01:10:46.480Z,2
2017-05-24T01:20:47.355Z,2
2017-05-24T01:30:46.532Z,2
2017-05-24T01:40:46.523Z,3
2017-05-24T01:50:46.575Z,2
2017-05-24T02:00:46.484Z,2
2017-05-24T02:10:46.573Z,2
2017-05-24T02:20:46.472Z,3
2017-05-24T02:30:46.480Z,2
2017-05-24T02:40:46.510Z,2
2017-05-24T02:50:46.448Z,2
2017-05-24T03:00:46.506Z,3
2017-05-24T03:10:46.536Z,3
2017-05-24T03:20:46.505Z,2
2017-05-24T03:30:46.635Z,2
2017-05-24T03:40:46.432Z,3
2017-05-24T03:50:46.457Z,4
2017-05-24T04:00:46.564Z,3
2017-05-24T04:10:46.501Z,2
2017-05-24T04:20:46.467Z,3
2017-05-24T04:30:46.440Z,4
2017-05-24T04:40:46.437Z,3
2017-05-24T04:50:46.574Z,5
2017-05-24T05:00:46.440Z,4
2017-05-24T05:10:46.480Z,3
2017-05-24T05:20:46.555Z,3
2017-05-24T05:30:46.796Z,3
2017-05-24T05:40:46.449Z,3
2017-05-24T05:50:46.478Z,3
2017-05-24T06:00:46.537Z,3
2017-05-24T06:10:46.568Z,3
2017-05-24T06:20:46.526Z,2
2017-05-24T06:30:46.651Z,3
2017-05-24T06:40:46.584Z,3
2017-05-24T06:50:46.525Z,3
2017-05-24T07:00:46.499Z,3
2017-05-24T07:10:46.467Z,3
2017-05-24T07:20:46.475Z,3
2017-05-24T07:30:54.374Z,3
2017-05-24T07:40:46.638Z,3
2017-05-24T07:50:46.635Z,2
2017-05-24T08:00:46.572Z,3
2017-05-24T08:10:46.525Z,3
2017-05-24T08:20:46.499Z,3
2017-05-24T08:30:46.503Z,2
2017-05-24T08:40:46.531Z,2
2017-05-24T08:50:46.529Z,2
2017-05-24T09:00:46.566Z,2
2017-05-24T09:10:46.641Z,2
2017-05-24T09:20:46.522Z,2
2017-05-24T09:30:46.550Z,2
2017-05-24T09:40:46.487Z,2
2017-05-24T09:50:46.518Z,2
2017-05-24T10:00:46.578Z,2
2017-05-24T10:10:46.611Z,2
2017-05-24T10:20:46.556Z,3
2017-05-24T10:30:46.646Z,2
2017-05-24T10:40:46.676Z,3
2017-05-24T10:50:46.867Z,3
2017-05-24T11:00:46.551Z,3
2017-05-24T11:10:46.791Z,4
2017-05-24T11:20:46.527Z,4
2017-05-24T11:30:46.521Z,4
2017-05-24T11:40:46.508Z,6
2017-05-24T11:50:46.784Z,5
2017-05-24T12:00:46.527Z,6
2017-05-24T12:10:46.525Z,6
2017-05-24T12:20:46.582Z,7
2017-05-24T12:30:46.560Z,7
2017-05-24T12:40:46.549Z,6
2017-05-24T12:50:46.543Z,6
2017-05-24T13:00:46.566Z,7
2017-05-24T13:10:46.697Z,7
2017-05-24T13:30:57.267Z,10
2017-05-24T13:40:46.899Z,12
2017-05-24T13:50:46.914Z,10
2017-05-24T14:00:46.694Z,12
2017-05-24T14:10:46.705Z,11
2017-05-24T14:20:46.688Z,11
2017-05-24T14:30:46.604Z,10
2017-05-24T14:40:46.906Z,9
2017-05-24T14:50:46.690Z,10
2017-05-24T15:00:46.660Z,8
2017-05-24T15:10:46.762Z,8
2017-05-24T15:20:46.641Z,8
2017-05-24T15:30:46.719Z,9
2017-05-24T15:40:46.694Z,8
2017-05-24T15:50:46.764Z,8
2017-05-24T16:00:46.671Z,8
2017-05-24T16:10:46.850Z,8
2017-05-24T16:20:46.614Z,6
2017-05-24T16:30:46.710Z,4
2017-05-24T16:40:46.709Z,4
2017-05-24T16:50:46.642Z,5
2017-05-24T17:00:46.624Z,4
2017-05-24T17:10:46.758Z,3
2017-05-24T17:20:46.591Z,3
2017-05-24T17:30:46.658Z,3
2017-05-24T17:40:46.634Z,3
2017-05-24T17:50:46.729Z,3
2017-05-24T18:00:46.595Z,4
2017-05-24T18:10:46.683Z,3
2017-05-24T18:20:46.659Z,3
2017-05-24T18:30:46.649Z,3
2017-05-24T18:40:46.626Z,4
2017-05-24T18:50:46.616Z,4
2017-05-24T19:00:46.674Z,4
2017-05-24T19:10:46.770Z,4
2017-05-24T19:20:46.608Z,4
2017-05-24T19:30:46.611Z,3
2017-05-24T19:40:46.692Z,2
2017-05-24T19:50:46.620Z,3
2017-05-24T20:00:46.628Z,3
2017-05-24T20:10:46.806Z,3
2017-05-24T20:20:46.681Z,3
2017-05-24T20:30:47.107Z,3
2017-05-24T20:40:51.778Z,3
2017-05-24T20:50:47.591Z,3
2017-05-24T21:00:46.763Z,3
2017-05-24T21:10:47.600Z,3
2017-05-24T21:20:46.834Z,3
2017-05-24T21:30:47.062Z,3
2017-05-24T21:40:46.859Z,3
2017-05-24T21:50:46.789Z,3
2017-05-24T22:00:47.070Z,2
2017-05-24T22:10:46.905Z,3
2017-05-24T22:20:46.726Z,3
2017-05-24T22:30:47.434Z,2
2017-05-24T22:40:47.029Z,3
2017-05-24T22:50:47.020Z,3
2017-05-24T23:00:47.214Z,5
2017-05-24T23:10:46.708Z,6
2017-05-24T23:20:46.660Z,6
2017-05-24T23:30:46.611Z,7
2017-05-24T23:40:46.780Z,8
2017-05-24T23:50:46.655Z,9
